createdAt,value
2017-07-24T00:02:20.190Z,2.53
2017-07-24T00:04:47.616Z,2.37
2017-07-24T00:07:15.796Z,2.30
2017-07-24T00:09:43.980Z,2.43
2017-07-24T00:12:11.403Z,2.20
2017-07-24T00:14:38.829Z,2.03
2017-07-24T00:20:11.622Z,2.20
2017-07-24T00:22:39.049Z,2.03
2017-07-24T00:25:06.474Z,1.93
2017-07-24T00:27:33.889Z,1.70
2017-07-24T00:30:01.334Z,2.13
2017-07-24T00:32:28.757Z,1.87
2017-07-24T00:34:56.947Z,2.23
2017-07-24T00:37:24.370Z,2.50
2017-07-24T00:39:52.565Z,2.30
2017-07-24T00:42:20.064Z,2.87
2017-07-24T00:44:47.465Z,2.73
2017-07-24T00:47:15.655Z,2.10
2017-07-24T00:49:43.088Z,2.27
2017-07-24T00:52:11.272Z,1.80
2017-07-24T00:54:39.480Z,2.10
2017-07-24T00:57:06.884Z,2.10
2017-07-24T00:59:35.080Z,3.07
2017-07-24T01:02:03.270Z,2.10
2017-07-24T01:04:30.709Z,2.47
2017-07-24T01:06:58.895Z,2.50
2017-07-24T01:09:26.309Z,2.50
2017-07-24T01:11:53.749Z,2.50
2017-07-24T01:14:21.161Z,2.27
2017-07-24T01:16:48.605Z,2.50
2017-07-24T01:19:16.792Z,2.70
2017-07-24T01:21:44.212Z,2.83
2017-07-24T01:24:12.433Z,2.67
2017-07-24T01:26:39.844Z,2.50
2017-07-24T01:29:08.041Z,2.80
2017-07-24T01:31:35.473Z,2.30
2017-07-24T01:34:03.711Z,2.93
2017-07-24T01:36:31.128Z,2.20
2017-07-24T01:38:58.585Z,2.30
2017-07-24T01:41:26.761Z,2.00
2017-07-24T01:43:54.192Z,2.77
2017-07-24T01:46:22.388Z,2.13
2017-07-24T01:48:49.823Z,2.67
2017-07-24T01:51:18.015Z,2.20
2017-07-24T01:53:45.451Z,2.33
2017-07-24T01:56:13.632Z,2.50
2017-07-24T01:58:41.876Z,1.87
2017-07-24T02:01:09.297Z,2.03
2017-07-24T02:03:36.744Z,2.00
2017-07-24T02:06:04.168Z,1.87
2017-07-24T02:08:32.390Z,2.57
2017-07-24T02:10:59.823Z,2.00
2017-07-24T02:13:27.261Z,2.13
2017-07-24T02:15:55.484Z,2.20
2017-07-24T02:18:22.891Z,2.00
2017-07-24T02:20:51.094Z,2.00
2017-07-24T02:23:18.524Z,2.07
2017-07-24T02:25:45.990Z,1.90
2017-07-24T02:28:13.406Z,1.83
2017-07-24T02:30:40.866Z,2.20
2017-07-24T02:33:08.312Z,2.00
2017-07-24T02:35:35.734Z,2.10
2017-07-24T02:38:03.153Z,2.03
2017-07-24T02:40:31.421Z,2.20
2017-07-24T02:42:59.614Z,2.30
2017-07-24T02:45:27.041Z,2.33
2017-07-24T02:47:54.494Z,1.93
2017-07-24T02:50:21.921Z,2.90
2017-07-24T02:52:49.339Z,2.27
2017-07-24T02:55:16.760Z,2.10
2017-07-24T02:57:44.185Z,2.20
2017-07-24T03:00:11.632Z,2.17
2017-07-24T03:02:39.036Z,2.40
2017-07-24T03:05:07.261Z,2.30
2017-07-24T03:07:34.688Z,2.40
2017-07-24T03:10:02.116Z,2.27
2017-07-24T03:12:29.734Z,2.30
2017-07-24T03:14:57.161Z,2.23
2017-07-24T03:17:24.576Z,2.40
2017-07-24T03:19:52.003Z,2.20
2017-07-24T03:22:19.479Z,2.40
2017-07-24T03:24:47.212Z,1.97
2017-07-24T03:27:14.718Z,2.10
2017-07-24T03:29:42.908Z,2.30
2017-07-24T03:32:11.114Z,2.17
2017-07-24T03:34:38.554Z,2.07
2017-07-24T03:37:06.744Z,2.10
2017-07-24T03:39:34.176Z,2.50
2017-07-24T03:42:01.600Z,2.13
2017-07-24T03:44:29.038Z,2.33
2017-07-24T03:46:56.466Z,2.30
2017-07-24T03:49:23.885Z,2.83
2017-07-24T03:51:52.080Z,2.30
2017-07-24T03:54:19.529Z,2.23
2017-07-24T03:56:46.995Z,2.77
2017-07-24T03:59:14.423Z,2.43
2017-07-24T04:01:42.681Z,3.10
2017-07-24T04:04:10.101Z,2.90
2017-07-24T04:06:37.529Z,2.40
2017-07-24T04:09:04.988Z,2.70
2017-07-24T04:11:32.425Z,3.30
2017-07-24T04:14:00.621Z,2.90
2017-07-24T04:16:29.067Z,2.40
2017-07-24T04:18:56.480Z,2.33
2017-07-24T04:21:23.914Z,2.87
2017-07-24T04:23:51.347Z,2.90
2017-07-24T04:26:19.551Z,3.20
2017-07-24T04:28:46.974Z,2.73
2017-07-24T04:31:15.186Z,2.53
2017-07-24T04:33:42.641Z,2.50
2017-07-24T04:36:10.149Z,2.80
2017-07-24T04:38:38.345Z,2.47
2017-07-24T04:41:05.770Z,2.20
2017-07-24T04:43:33.223Z,2.43
2017-07-24T04:46:00.690Z,2.50
2017-07-24T04:48:28.128Z,2.37
2017-07-24T04:50:55.567Z,2.23
2017-07-24T04:53:23.014Z,2.57
2017-07-24T04:55:50.420Z,2.10
2017-07-24T04:58:17.888Z,2.40
2017-07-24T05:00:45.351Z,2.47
2017-07-24T05:03:12.768Z,2.33
2017-07-24T05:05:40.205Z,2.50
2017-07-24T05:08:07.654Z,2.30
2017-07-24T05:10:35.308Z,3.10
2017-07-24T05:13:02.734Z,2.77
2017-07-24T05:15:30.196Z,2.50
2017-07-24T05:17:57.629Z,2.00
2017-07-24T05:20:25.833Z,2.23
2017-07-24T05:22:53.277Z,3.00
2017-07-24T05:25:20.730Z,2.20
2017-07-24T05:27:49.126Z,2.27
2017-07-24T05:30:16.903Z,2.73
2017-07-24T05:32:44.690Z,2.43
2017-07-24T05:35:12.229Z,2.50
2017-07-24T05:37:39.854Z,2.50
2017-07-24T05:40:07.276Z,2.40
2017-07-24T05:42:34.812Z,2.27
2017-07-24T05:45:02.492Z,2.90
2017-07-24T05:47:30.024Z,2.57
2017-07-24T05:49:57.699Z,2.80
2017-07-24T05:52:25.282Z,2.50
2017-07-24T05:54:53.163Z,2.23
2017-07-24T05:57:20.692Z,2.63
2017-07-24T05:59:49.164Z,2.63
2017-07-24T06:02:16.615Z,2.27
2017-07-24T06:04:44.096Z,2.07
2017-07-24T06:07:11.510Z,2.53
2017-07-24T06:09:39.024Z,1.93
2017-07-24T06:12:07.221Z,2.20
2017-07-24T06:14:34.792Z,2.70
2017-07-24T06:17:02.263Z,2.30
2017-07-24T06:19:29.696Z,2.50
2017-07-24T06:21:57.141Z,2.50
2017-07-24T06:24:24.557Z,2.57
2017-07-24T06:26:51.987Z,2.47
2017-07-24T06:29:19.442Z,2.40
2017-07-24T06:31:46.981Z,2.20
2017-07-24T06:34:14.564Z,2.07
2017-07-24T06:36:42.148Z,1.90
2017-07-24T06:39:09.696Z,2.10
2017-07-24T06:41:37.261Z,1.93
2017-07-24T06:44:04.742Z,2.30
2017-07-24T06:46:32.255Z,2.57
2017-07-24T06:48:59.731Z,2.70
2017-07-24T06:51:27.210Z,2.47
2017-07-24T06:53:54.768Z,2.50
2017-07-24T06:56:22.518Z,2.10
2017-07-24T06:58:50.052Z,2.40
2017-07-24T07:01:18.610Z,2.40
2017-07-24T07:03:46.120Z,2.30
2017-07-24T07:06:13.620Z,2.37
2017-07-24T07:08:41.096Z,2.07
2017-07-24T07:11:08.513Z,2.23
2017-07-24T07:13:35.929Z,2.43
2017-07-24T07:16:03.381Z,1.90
2017-07-24T07:18:31.630Z,2.30
2017-07-24T07:20:59.826Z,2.47
2017-07-24T07:23:27.257Z,2.40
2017-07-24T07:25:54.714Z,1.80
2017-07-24T07:28:22.912Z,2.10
2017-07-24T07:30:50.346Z,1.83
2017-07-24T07:33:18.535Z,2.00
2017-07-24T07:35:45.960Z,1.80
2017-07-24T07:38:13.493Z,1.90
2017-07-24T07:40:41.020Z,2.10
2017-07-24T07:43:08.440Z,2.13
2017-07-24T07:45:35.870Z,2.13
2017-07-24T07:48:03.294Z,1.93
2017-07-24T07:50:30.760Z,2.20
2017-07-24T07:52:58.193Z,2.37
2017-07-24T07:55:25.644Z,1.87
2017-07-24T07:57:53.132Z,1.90
2017-07-24T08:00:20.539Z,2.37
2017-07-24T08:02:48.732Z,1.90
2017-07-24T08:05:16.152Z,2.13
2017-07-24T08:07:43.609Z,1.70
2017-07-24T08:10:11.015Z,2.10
2017-07-24T08:12:38.435Z,2.00
2017-07-24T08:15:05.884Z,1.80
2017-07-24T08:17:33.301Z,2.10
2017-07-24T08:20:00.744Z,1.87
2017-07-24T08:22:28.157Z,2.10
2017-07-24T08:24:56.363Z,2.40
2017-07-24T08:27:23.787Z,2.00
2017-07-24T08:29:51.989Z,2.40
2017-07-24T08:32:19.540Z,2.30
2017-07-24T08:34:46.968Z,2.30
2017-07-24T08:37:14.393Z,2.10
2017-07-24T08:39:41.902Z,2.40
2017-07-24T08:42:09.341Z,2.30
2017-07-24T08:44:36.765Z,2.37
2017-07-24T08:47:04.190Z,2.33
2017-07-24T08:49:31.637Z,2.13
2017-07-24T08:51:59.049Z,2.57
2017-07-24T08:54:26.457Z,2.20
2017-07-24T08:56:54.680Z,2.03
2017-07-24T08:59:22.140Z,2.40
2017-07-24T09:01:49.562Z,2.40
2017-07-24T09:04:17.757Z,2.57
2017-07-24T09:06:45.184Z,2.40
2017-07-24T09:09:12.600Z,2.97
2017-07-24T09:11:40.020Z,2.97
2017-07-24T09:14:07.472Z,2.83
2017-07-24T09:16:34.893Z,2.83
2017-07-24T09:19:02.409Z,2.57
2017-07-24T09:21:29.854Z,3.10
2017-07-24T09:23:57.274Z,3.20
2017-07-24T09:26:25.452Z,2.90
2017-07-24T09:28:52.881Z,3.00
2017-07-24T09:31:20.307Z,3.00
2017-07-24T09:33:47.725Z,3.10
2017-07-24T09:36:15.152Z,3.00
2017-07-24T09:38:42.584Z,2.83
2017-07-24T09:41:10.004Z,3.10
2017-07-24T09:43:37.425Z,3.07
2017-07-24T09:46:05.616Z,3.50
2017-07-24T09:48:33.042Z,3.70
2017-07-24T09:51:01.240Z,4.30
2017-07-24T09:53:28.664Z,4.03
2017-07-24T09:55:56.111Z,4.30
2017-07-24T09:58:23.530Z,4.30
2017-07-24T10:00:50.972Z,4.37
2017-07-24T10:03:18.398Z,4.53
2017-07-24T10:05:46.585Z,4.90
2017-07-24T10:08:14.797Z,3.47
2017-07-24T10:10:42.275Z,3.77
2017-07-24T10:13:09.677Z,4.23
2017-07-24T10:15:37.110Z,3.03
2017-07-24T10:18:04.536Z,3.60
2017-07-24T10:20:32.028Z,3.57
2017-07-24T10:23:00.220Z,3.20
2017-07-24T10:25:27.651Z,3.10
2017-07-24T10:27:55.832Z,3.60
2017-07-24T10:30:24.066Z,2.87
2017-07-24T10:32:51.481Z,3.43
2017-07-24T10:35:18.916Z,3.00
2017-07-24T10:37:46.340Z,3.07
2017-07-24T10:40:13.793Z,3.77
2017-07-24T10:42:41.194Z,3.33
2017-07-24T10:45:09.381Z,4.20
2017-07-24T10:47:36.836Z,4.40
2017-07-24T10:50:04.273Z,4.17
2017-07-24T10:55:07.204Z,4.73
2017-07-24T10:57:34.688Z,4.70
2017-07-24T11:00:02.117Z,4.90
2017-07-24T11:02:29.606Z,5.27
2017-07-24T11:04:57.053Z,4.87
2017-07-24T11:07:24.471Z,4.20
2017-07-24T11:12:28.631Z,5.10
2017-07-24T11:14:56.053Z,4.70
2017-07-24T11:17:23.472Z,5.73
2017-07-24T11:19:50.917Z,5.60
2017-07-24T11:22:18.365Z,6.33
2017-07-24T11:24:45.798Z,6.80
2017-07-24T11:27:13.228Z,7.20
2017-07-24T11:29:40.668Z,6.73
2017-07-24T11:32:08.191Z,6.80
2017-07-24T11:34:35.642Z,6.63
2017-07-24T11:37:03.060Z,6.33
2017-07-24T11:39:30.490Z,7.10
2017-07-24T11:41:58.688Z,6.67
2017-07-24T11:44:26.109Z,6.77
2017-07-24T11:46:53.541Z,6.80
2017-07-24T11:49:20.956Z,6.50
2017-07-24T11:51:48.413Z,6.87
2017-07-24T11:54:15.838Z,7.30
2017-07-24T11:56:44.036Z,7.07
2017-07-24T11:59:12.244Z,6.60
2017-07-24T12:01:39.649Z,5.80
2017-07-24T12:04:07.867Z,6.60
2017-07-24T12:06:35.376Z,7.20
2017-07-24T12:09:03.574Z,6.43
2017-07-24T12:11:30.998Z,7.03
2017-07-24T12:13:58.435Z,6.53
2017-07-24T12:16:25.873Z,7.60
2017-07-24T12:18:53.314Z,7.93
2017-07-24T12:21:20.748Z,7.47
2017-07-24T12:23:48.976Z,7.73
2017-07-24T12:26:16.464Z,7.93
2017-07-24T12:28:43.896Z,7.90
2017-07-24T12:31:11.314Z,7.97
2017-07-24T12:33:38.760Z,8.63
2017-07-24T12:36:06.205Z,9.77
2017-07-24T12:38:33.651Z,10.00
2017-07-24T12:41:01.080Z,9.90
2017-07-24T12:43:28.520Z,10.70
2017-07-24T12:45:55.958Z,10.60
2017-07-24T12:48:23.388Z,10.00
2017-07-24T12:50:50.823Z,10.13
2017-07-24T12:53:19.017Z,10.40
2017-07-24T12:55:46.480Z,9.20
2017-07-24T12:58:13.895Z,9.10
2017-07-24T13:00:42.089Z,9.97
2017-07-24T13:03:09.517Z,9.10
2017-07-24T13:05:36.932Z,9.60
2017-07-24T13:08:04.373Z,9.30
2017-07-24T13:10:31.815Z,8.70
2017-07-24T13:12:59.234Z,7.87
2017-07-24T13:15:26.673Z,8.33
2017-07-24T13:17:54.114Z,9.17
2017-07-24T13:20:21.544Z,9.27
2017-07-24T13:22:48.960Z,8.20
2017-07-24T13:25:16.393Z,8.10
2017-07-24T13:27:43.830Z,9.70
2017-07-24T13:30:11.319Z,9.00
2017-07-24T13:32:38.773Z,9.20
2017-07-24T13:35:06.207Z,8.60
2017-07-24T13:37:33.704Z,9.37
2017-07-24T13:40:01.131Z,8.37
2017-07-24T13:42:28.567Z,8.50
2017-07-24T13:44:55.996Z,8.30
2017-07-24T13:47:23.435Z,8.60
2017-07-24T13:49:50.900Z,8.20
2017-07-24T13:52:18.330Z,8.47
2017-07-24T13:54:45.782Z,9.23
2017-07-24T13:57:13.213Z,8.90
2017-07-24T13:59:40.643Z,9.40
2017-07-24T14:02:08.066Z,8.87
2017-07-24T14:04:36.276Z,10.10
2017-07-24T14:07:03.697Z,9.10
2017-07-24T14:09:31.982Z,8.37
2017-07-24T14:11:59.429Z,8.50
2017-07-24T14:14:26.857Z,8.97
2017-07-24T14:16:54.273Z,9.00
2017-07-24T14:19:21.758Z,9.10
2017-07-24T14:24:25.841Z,8.60
2017-07-24T14:26:53.277Z,8.33
2017-07-24T14:29:20.692Z,8.73
2017-07-24T14:31:48.124Z,9.30
2017-07-24T14:34:15.560Z,9.03
2017-07-24T14:36:43.752Z,8.20
2017-07-24T14:39:11.205Z,8.40
2017-07-24T14:41:38.657Z,8.10
2017-07-24T14:44:06.201Z,9.33
2017-07-24T14:46:34.412Z,8.50
2017-07-24T14:49:01.832Z,8.50
2017-07-24T14:51:29.286Z,8.30
2017-07-24T14:53:56.705Z,9.20
2017-07-24T14:56:24.149Z,8.93
2017-07-24T14:58:51.574Z,10.00
2017-07-24T15:01:19.011Z,8.70
2017-07-24T15:03:46.602Z,8.87
2017-07-24T15:06:14.076Z,9.23
2017-07-24T15:08:41.532Z,10.30
2017-07-24T15:11:09.004Z,9.30
2017-07-24T15:13:36.425Z,10.20
2017-07-24T15:16:03.869Z,8.83
2017-07-24T15:18:31.293Z,11.07
2017-07-24T15:20:58.734Z,10.93
2017-07-24T15:23:26.172Z,11.17
2017-07-24T15:25:54.365Z,11.17
2017-07-24T15:28:21.796Z,11.30
2017-07-24T15:30:50.016Z,11.67
2017-07-24T15:33:17.426Z,11.43
2017-07-24T15:35:44.856Z,12.20
2017-07-24T15:38:12.300Z,12.80
2017-07-24T15:40:39.742Z,12.20
2017-07-24T15:43:07.168Z,11.10
2017-07-24T15:45:35.425Z,11.90
2017-07-24T15:48:03.621Z,12.20
2017-07-24T15:50:31.055Z,11.73
2017-07-24T15:52:58.496Z,13.37
2017-07-24T15:55:25.964Z,11.77
2017-07-24T15:57:53.376Z,12.33
2017-07-24T16:00:20.832Z,12.03
2017-07-24T16:02:48.300Z,12.80
2017-07-24T16:05:15.720Z,12.70
2017-07-24T16:07:43.183Z,14.60
2017-07-24T16:10:10.607Z,14.03
2017-07-24T16:12:38.173Z,14.97
2017-07-24T16:15:05.711Z,14.60
2017-07-24T16:17:33.141Z,14.77
2017-07-24T16:20:00.576Z,15.03
2017-07-24T16:22:28.031Z,15.00
2017-07-24T16:24:55.473Z,15.60
2017-07-24T16:27:22.888Z,14.70
2017-07-24T16:29:50.313Z,14.47
2017-07-24T16:32:17.752Z,15.23
2017-07-24T16:34:45.228Z,15.27
2017-07-24T16:37:12.654Z,14.00
2017-07-24T16:39:40.073Z,15.13
2017-07-24T16:42:08.280Z,15.90
2017-07-24T16:44:35.719Z,15.43
2017-07-24T16:47:03.925Z,15.37
2017-07-24T16:49:31.486Z,14.60
2017-07-24T16:51:58.944Z,14.23
2017-07-24T16:54:26.408Z,14.27
2017-07-24T16:56:53.877Z,14.00
2017-07-24T16:59:21.293Z,14.47
2017-07-24T17:01:48.737Z,13.77
2017-07-24T17:04:17.263Z,13.57
2017-07-24T17:06:44.709Z,13.43
2017-07-24T17:09:12.164Z,13.47
2017-07-24T17:11:39.614Z,14.00
2017-07-24T17:14:07.056Z,13.43
2017-07-24T17:16:34.525Z,12.87
2017-07-24T17:19:01.944Z,13.77
2017-07-24T17:21:29.369Z,13.60
2017-07-24T17:23:57.574Z,12.10
2017-07-24T17:26:25.013Z,12.33
2017-07-24T17:28:52.462Z,12.50
2017-07-24T17:31:20.712Z,11.93
2017-07-24T17:33:48.129Z,13.47
2017-07-24T17:36:15.581Z,14.27
2017-07-24T17:38:43.004Z,14.20
2017-07-24T17:41:10.461Z,14.03
2017-07-24T17:43:37.888Z,14.90
2017-07-24T17:46:05.335Z,14.53
2017-07-24T17:48:32.783Z,14.10
2017-07-24T17:51:00.221Z,13.97
2017-07-24T17:53:28.515Z,12.90
2017-07-24T17:55:56.640Z,14.73
2017-07-24T17:58:24.077Z,15.50
2017-07-24T18:00:52.302Z,13.83
2017-07-24T18:03:19.723Z,15.20
2017-07-24T18:05:47.144Z,15.47
2017-07-24T18:08:14.593Z,13.77
2017-07-24T18:10:42.017Z,14.13
2017-07-24T18:13:09.464Z,14.07
2017-07-24T18:15:36.908Z,13.50
2017-07-24T18:18:04.330Z,12.73
2017-07-24T18:20:32.572Z,12.13
2017-07-24T18:23:00.013Z,13.20
2017-07-24T18:25:27.642Z,12.30
2017-07-24T18:27:55.069Z,12.60
2017-07-24T18:30:23.304Z,12.10
2017-07-24T18:32:51.206Z,12.30
2017-07-24T18:35:19.122Z,13.20
2017-07-24T18:37:46.539Z,11.93
2017-07-24T18:40:14.137Z,11.77
2017-07-24T18:42:42.312Z,11.10
2017-07-24T18:45:09.807Z,11.20
2017-07-24T18:47:37.233Z,10.20
2017-07-24T18:50:04.645Z,11.17
2017-07-24T18:52:32.841Z,10.60
2017-07-24T18:55:00.273Z,10.90
2017-07-24T18:57:27.696Z,9.43
2017-07-24T18:59:55.139Z,10.13
2017-07-24T19:02:22.544Z,9.50
2017-07-24T19:04:49.977Z,10.30
2017-07-24T19:07:17.406Z,9.40
2017-07-24T19:09:44.847Z,9.83
2017-07-24T19:12:12.277Z,10.60
2017-07-24T19:14:39.718Z,10.20
2017-07-24T19:17:07.904Z,10.43
2017-07-24T19:19:35.362Z,10.50
2017-07-24T19:22:03.574Z,10.77
2017-07-24T19:24:31.061Z,10.37
2017-07-24T19:26:58.529Z,10.77
2017-07-24T19:29:26.049Z,11.43
2017-07-24T19:31:53.536Z,11.50
2017-07-24T19:34:21.032Z,12.70
2017-07-24T19:36:48.497Z,12.90
2017-07-24T19:39:15.970Z,12.87
2017-07-24T19:41:43.384Z,12.07
2017-07-24T19:44:10.826Z,13.87
2017-07-24T19:46:38.248Z,13.80
2017-07-24T19:49:05.677Z,14.20
2017-07-24T19:51:35.013Z,13.17
2017-07-24T19:54:02.581Z,13.30
2017-07-24T19:56:30.059Z,14.57
2017-07-24T19:58:58.361Z,14.23
2017-07-24T20:01:25.930Z,13.83
2017-07-24T20:03:53.522Z,13.37
2017-07-24T20:06:21.040Z,13.20
2017-07-24T20:08:48.479Z,14.90
2017-07-24T20:11:16.126Z,15.70
2017-07-24T20:13:44.318Z,15.80
2017-07-24T20:16:11.772Z,15.50
2017-07-24T20:18:39.199Z,15.87
2017-07-24T20:21:07.567Z,16.83
2017-07-24T20:23:34.987Z,17.00
2017-07-24T20:26:02.454Z,16.77
2017-07-24T20:28:29.897Z,17.10
2017-07-24T20:30:57.317Z,16.90
2017-07-24T20:33:25.592Z,17.03
2017-07-24T20:35:53.034Z,18.20
2017-07-24T20:38:20.479Z,18.03
2017-07-24T20:40:47.906Z,18.00
2017-07-24T20:43:15.350Z,18.70
2017-07-24T20:45:42.789Z,19.20
2017-07-24T20:48:10.983Z,18.27
2017-07-24T20:50:38.443Z,16.87
2017-07-24T20:53:05.873Z,18.73
2017-07-24T20:55:34.072Z,19.50
2017-07-24T20:58:01.514Z,19.90
2017-07-24T21:00:28.940Z,18.53
2017-07-24T21:02:56.383Z,20.87
2017-07-24T21:05:23.922Z,18.97
2017-07-24T21:07:51.405Z,20.67
2017-07-24T21:10:18.850Z,18.97
2017-07-24T21:12:46.330Z,19.80
2017-07-24T21:15:14.578Z,20.80
2017-07-24T21:17:42.022Z,20.60
2017-07-24T21:20:09.485Z,19.37
2017-07-24T21:22:37.053Z,19.87
2017-07-24T21:25:05.120Z,20.03
2017-07-24T21:27:32.796Z,20.30
2017-07-24T21:30:00.209Z,20.93
2017-07-24T21:32:27.645Z,21.97
2017-07-24T21:34:55.068Z,21.13
2017-07-24T21:37:22.508Z,21.30
2017-07-24T21:39:49.958Z,21.00
2017-07-24T21:42:17.396Z,20.63
2017-07-24T21:44:44.849Z,19.97
2017-07-24T21:47:12.269Z,20.07
2017-07-24T21:49:39.708Z,19.87
2017-07-24T21:52:07.127Z,18.50
2017-07-24T21:54:34.548Z,18.37
2017-07-24T21:57:01.989Z,16.73
2017-07-24T21:59:29.458Z,16.00
2017-07-24T22:01:56.905Z,15.90
2017-07-24T22:04:24.338Z,15.80
2017-07-24T22:06:51.748Z,14.27
2017-07-24T22:09:19.201Z,14.67
2017-07-24T22:11:46.624Z,12.57
2017-07-24T22:14:14.048Z,13.67
2017-07-24T22:16:41.496Z,13.43
2017-07-24T22:19:08.935Z,13.60
2017-07-24T22:21:37.119Z,12.60
2017-07-24T22:24:04.549Z,12.67
2017-07-24T22:26:32.010Z,12.73
2017-07-24T22:28:59.497Z,11.73
2017-07-24T22:31:26.953Z,11.13
2017-07-24T22:33:54.403Z,11.73
2017-07-24T22:36:21.828Z,11.17
2017-07-24T22:38:49.261Z,11.83
2017-07-24T22:41:16.715Z,11.17
2017-07-24T22:46:30.353Z,10.23
2017-07-24T22:48:57.793Z,10.60
2017-07-24T22:51:25.239Z,9.73
2017-07-24T22:53:52.658Z,10.30
2017-07-24T22:56:20.100Z,10.00
2017-07-24T22:58:47.515Z,9.80
2017-07-24T23:01:14.973Z,9.57
2017-07-24T23:03:42.496Z,9.80
2017-07-24T23:06:10.672Z,10.27
2017-07-24T23:08:38.110Z,10.57
2017-07-24T23:11:05.620Z,10.10
2017-07-24T23:13:33.111Z,10.97
2017-07-24T23:16:01.300Z,11.50
2017-07-24T23:18:28.727Z,10.63
2017-07-24T23:20:56.158Z,11.13
2017-07-24T23:23:23.588Z,10.83
2017-07-24T23:25:51.016Z,11.77
2017-07-24T23:28:18.453Z,13.30
2017-07-24T23:30:45.889Z,12.23
2017-07-24T23:33:13.321Z,12.37
2017-07-24T23:35:40.788Z,13.47
2017-07-24T23:38:08.225Z,13.37
2017-07-24T23:40:35.639Z,12.73
2017-07-24T23:43:03.840Z,13.73
2017-07-24T23:45:31.272Z,14.20
2017-07-24T23:47:59.468Z,12.73
2017-07-24T23:50:26.905Z,13.70
2017-07-24T23:52:55.118Z,13.30
2017-07-24T23:55:22.548Z,13.23
2017-07-24T23:57:49.971Z,13.57
